West Las Vegas, New Mexico
Current Conditions -  °F | °C
As of 6:53 PM on Wednesday 17 Dec 2014 (Local Time) from KLVS Reporting Station
Clear Clear  
Wind Chill: 23°   Ceiling: Unl
Heat Index: 32°   Visibility: 10mi
Dew Point: 25°   Wind: 12mph
Humidity: 75%   Direction: 200°SSW
Pressure: 29.96"   Gusts: NA
Location:  35.5292°N, 104.927°W
Report Text: KLVS 180153Z AUTO 20010KT 10SM CLR 00/M04 A2996 RMK AO2 SLP142 T00001039
Loading
Personal Weather Stations






























Interactive Weather Map New forecast layout! Learn more

10-Day Weather Forecast

Advertisements
Track Severe Weather on mobile